createdAt,value
2019-05-20T03:42:23.759Z,11.90
2019-05-20T03:44:53.092Z,11.80
2019-05-20T03:47:23.436Z,11.90
2019-05-20T03:49:52.690Z,11.90
2019-05-20T03:52:22.258Z,11.90
2019-05-20T03:54:52.195Z,11.90
2019-05-20T03:57:24.582Z,11.90
2019-05-20T03:59:53.780Z,11.90
2019-05-20T04:02:25.869Z,11.90
2019-05-20T04:05:02.013Z,11.90
2019-05-20T04:07:26.320Z,12.00
2019-05-20T04:09:56.158Z,12.00
2019-05-20T04:12:26.246Z,12.00
2019-05-20T04:14:55.590Z,12.00
2019-05-20T04:17:27.402Z,12.10
2019-05-20T04:19:57.025Z,12.10
2019-05-20T04:22:26.303Z,12.10
2019-05-20T04:24:55.562Z,12.10
2019-05-20T04:27:25.198Z,12.20
2019-05-20T04:29:55.509Z,12.20
2019-05-20T04:32:26.718Z,12.20
2019-05-20T04:34:55.868Z,12.20
2019-05-20T04:37:25.189Z,12.20
2019-05-20T04:39:54.409Z,12.30
2019-05-20T04:42:24.705Z,12.30
2019-05-20T04:44:56.139Z,12.30
2019-05-20T04:47:24.955Z,12.30
2019-05-20T04:49:54.408Z,12.40
2019-05-20T04:52:23.649Z,12.40
2019-05-20T04:54:53.043Z,12.40
2019-05-20T04:57:22.285Z,12.40
2019-05-20T04:59:53.976Z,12.40
2019-05-20T05:02:23.272Z,12.40
2019-05-20T05:04:52.783Z,12.40
2019-05-20T05:07:22.326Z,12.40
2019-05-20T05:09:51.636Z,12.50
2019-05-20T05:12:21.191Z,12.50
2019-05-20T05:14:50.698Z,12.60
2019-05-20T05:17:20.156Z,12.60
2019-05-20T05:19:50.959Z,12.60
2019-05-20T05:22:20.255Z,12.70
2019-05-20T05:24:50.755Z,12.90
2019-05-20T05:27:19.939Z,13.40
2019-05-20T05:29:49.208Z,13.70
2019-05-20T05:32:37.415Z,13.80
2019-05-20T05:35:07.121Z,14.00
2019-05-20T05:37:36.335Z,14.10
2019-05-20T05:40:08.306Z,14.30
2019-05-20T05:42:37.854Z,14.40
2019-05-20T05:45:07.906Z,14.10
2019-05-20T05:47:40.088Z,13.90
2019-05-20T05:50:09.914Z,13.60
2019-05-20T05:52:39.066Z,13.50
2019-05-20T05:55:11.710Z,13.40
2019-05-20T05:57:43.030Z,13.30
2019-05-20T06:02:48.300Z,13.10
2019-05-20T06:05:17.700Z,13.00
2019-05-20T06:07:47.022Z,12.90
2019-05-20T06:10:16.759Z,12.80
2019-05-20T06:12:45.968Z,12.80
2019-05-20T06:15:16.148Z,12.70
2019-05-20T06:17:45.311Z,12.70
2019-05-20T06:20:15.660Z,12.80
2019-05-20T06:22:45.583Z,12.80
2019-05-20T06:25:15.702Z,12.90
2019-05-20T06:27:44.936Z,12.90
2019-05-20T06:30:15.048Z,13.00
2019-05-20T06:32:44.831Z,13.00
2019-05-20T06:35:14.410Z,13.00
2019-05-20T06:37:47.312Z,13.10
2019-05-20T06:40:20.399Z,13.10
2019-05-20T06:42:52.066Z,13.20
2019-05-20T06:45:21.740Z,13.30
2019-05-20T06:47:50.905Z,13.40
2019-05-20T06:50:20.379Z,13.40
2019-05-20T06:52:50.550Z,13.50
2019-05-20T06:55:20.179Z,13.50
2019-05-20T06:57:49.502Z,13.50
2019-05-20T07:00:34.192Z,13.60
2019-05-20T07:03:03.785Z,13.70
2019-05-20T07:05:33.143Z,13.70
2019-05-20T07:08:02.425Z,13.80
2019-05-20T07:10:32.701Z,13.80
2019-05-20T07:13:01.997Z,13.90
2019-05-20T07:15:31.274Z,13.90
2019-05-20T07:18:00.715Z,14.00
2019-05-20T07:20:49.151Z,14.00
2019-05-20T07:23:19.966Z,14.00
2019-05-20T07:25:49.251Z,14.10
2019-05-20T07:28:20.847Z,14.20
2019-05-20T07:30:50.186Z,14.10
2019-05-20T07:33:19.898Z,14.20
2019-05-20T07:35:49.506Z,14.20
2019-05-20T07:38:18.806Z,14.20
2019-05-20T07:40:48.045Z,14.10
2019-05-20T07:43:17.329Z,14.10
2019-05-20T07:45:47.413Z,14.10
2019-05-20T07:48:17.990Z,14.10
2019-05-20T07:50:49.329Z,14.10
2019-05-20T07:53:20.199Z,14.10
2019-05-20T07:56:00.696Z,14.10
2019-05-20T07:58:33.764Z,14.10
2019-05-20T08:01:11.351Z,14.10
2019-05-20T08:03:45.172Z,14.20
2019-05-20T08:06:16.158Z,14.20
2019-05-20T08:08:46.972Z,14.30
2019-05-20T08:11:16.262Z,14.20
2019-05-20T08:13:45.629Z,14.30
2019-05-20T08:16:15.062Z,14.40
2019-05-20T08:18:44.444Z,14.40
2019-05-20T08:21:13.662Z,14.40
2019-05-20T08:23:43.681Z,14.40
2019-05-20T08:26:12.987Z,14.60
2019-05-20T08:28:42.309Z,14.70
2019-05-20T08:31:11.849Z,14.70
2019-05-20T08:33:41.178Z,14.70
2019-05-20T08:36:14.025Z,14.80
2019-05-20T08:38:43.549Z,14.80
2019-05-20T08:41:12.911Z,14.80
2019-05-20T08:43:42.139Z,14.90
2019-05-20T08:46:11.387Z,14.90
2019-05-20T08:48:40.695Z,14.90
2019-05-20T08:51:09.960Z,15.00
2019-05-20T08:53:39.155Z,15.00
2019-05-20T08:56:09.751Z,14.90
2019-05-20T08:58:39.045Z,14.90
2019-05-20T09:01:09.700Z,14.80
2019-05-20T09:03:39.274Z,15.00
2019-05-20T09:06:08.510Z,15.00
2019-05-20T09:08:37.845Z,14.90
2019-05-20T09:11:08.668Z,14.90
2019-05-20T09:13:37.922Z,15.10
2019-05-20T09:16:07.241Z,14.90
2019-05-20T09:18:36.520Z,14.90
2019-05-20T09:21:05.804Z,14.90
2019-05-20T09:23:35.128Z,15.00
2019-05-20T09:26:04.638Z,15.00
2019-05-20T09:28:34.214Z,15.10
2019-05-20T09:31:03.594Z,15.20
2019-05-20T09:33:33.172Z,15.30
2019-05-20T09:36:06.547Z,15.30
2019-05-20T09:38:37.105Z,15.40
2019-05-20T09:41:10.649Z,15.30
2019-05-20T09:43:39.972Z,15.30
2019-05-20T09:46:09.260Z,15.30
2019-05-20T09:48:40.905Z,15.20
2019-05-20T09:51:10.550Z,15.30
2019-05-20T09:53:41.851Z,15.30
2019-05-20T09:56:11.266Z,15.20
2019-05-20T09:58:40.580Z,15.20
2019-05-20T10:01:09.836Z,15.20
2019-05-20T10:03:42.840Z,15.20
2019-05-20T10:06:12.118Z,15.10
2019-05-20T10:08:45.017Z,15.10
2019-05-20T10:11:14.193Z,15.00
2019-05-20T10:13:47.108Z,14.90
2019-05-20T10:16:16.416Z,14.80
2019-05-20T10:18:45.734Z,14.90
2019-05-20T10:21:15.012Z,15.00
2019-05-20T10:23:44.321Z,15.00
2019-05-20T10:26:13.532Z,15.00
2019-05-20T10:28:46.820Z,15.00
2019-05-20T10:31:15.727Z,15.00
2019-05-20T10:33:45.010Z,15.00
2019-05-20T10:36:16.271Z,14.90
2019-05-20T10:38:57.304Z,14.80
2019-05-20T10:41:17.422Z,14.80
2019-05-20T10:43:47.108Z,14.80
2019-05-20T10:46:16.279Z,14.80
2019-05-20T10:48:45.898Z,15.20
2019-05-20T10:51:15.057Z,15.50
2019-05-20T10:53:44.229Z,15.70
2019-05-20T10:56:17.811Z,15.80
2019-05-20T10:58:47.092Z,15.60
2019-05-20T11:01:16.434Z,15.50
2019-05-20T11:03:48.053Z,15.30
2019-05-20T11:06:21.108Z,15.20
2019-05-20T11:08:50.389Z,15.20
2019-05-20T11:11:19.687Z,15.10
2019-05-20T11:13:48.905Z,15.10
2019-05-20T11:16:18.385Z,15.20
2019-05-20T11:18:48.167Z,15.20
2019-05-20T11:21:17.387Z,15.30
2019-05-20T11:23:49.468Z,15.40
2019-05-20T11:26:18.681Z,15.50
2019-05-20T11:28:50.480Z,15.60
2019-05-20T11:31:19.662Z,15.70
2019-05-20T11:33:49.002Z,15.90
2019-05-20T11:36:18.962Z,16.10
2019-05-20T11:38:48.252Z,16.20
2019-05-20T11:41:17.551Z,16.30
2019-05-20T11:43:46.762Z,16.50
2019-05-20T11:46:17.192Z,16.50
2019-05-20T11:48:47.206Z,16.50
2019-05-20T11:51:16.496Z,16.30
2019-05-20T11:53:48.644Z,16.00
2019-05-20T11:56:17.820Z,15.70
2019-05-20T11:58:47.030Z,15.50
2019-05-20T12:01:16.320Z,15.40
2019-05-20T12:03:45.838Z,15.20
2019-05-20T12:06:15.855Z,15.00
2019-05-20T12:08:45.201Z,14.90
2019-05-20T12:11:14.470Z,14.90
2019-05-20T12:13:43.705Z,14.80
2019-05-20T12:16:13.054Z,14.80
2019-05-20T12:18:45.232Z,14.70
2019-05-20T12:21:14.858Z,14.70
2019-05-20T12:23:44.124Z,14.60
2019-05-20T12:26:16.178Z,14.70
2019-05-20T12:28:45.530Z,14.60
2019-05-20T12:31:14.934Z,14.40
2019-05-20T12:33:45.339Z,14.40
2019-05-20T12:36:14.674Z,14.10
2019-05-20T12:38:44.000Z,14.00
2019-05-20T12:41:13.218Z,13.90
2019-05-20T12:43:44.994Z,13.90
2019-05-20T12:46:13.438Z,13.80
2019-05-20T12:48:42.665Z,13.70
2019-05-20T12:51:14.536Z,13.40
2019-05-20T12:53:44.783Z,13.40
2019-05-20T12:56:14.091Z,13.40
2019-05-20T12:58:43.380Z,13.50
2019-05-20T13:01:12.859Z,13.50
2019-05-20T13:03:44.399Z,13.40
2019-05-20T13:06:13.957Z,13.30
2019-05-20T13:08:43.292Z,13.20
2019-05-20T13:11:12.756Z,13.20
2019-05-20T13:13:41.968Z,13.10
2019-05-20T13:16:12.841Z,13.10
2019-05-20T13:18:54.902Z,13.20
2019-05-20T13:21:13.232Z,13.10
2019-05-20T13:23:42.687Z,13.10
2019-05-20T13:26:11.904Z,13.10
2019-05-20T13:28:41.312Z,13.00
2019-05-20T13:31:11.272Z,13.00
2019-05-20T13:33:42.041Z,13.00
2019-05-20T13:36:14.960Z,13.10
2019-05-20T13:38:44.091Z,13.10
2019-05-20T13:41:13.419Z,13.20
2019-05-20T13:43:42.948Z,13.20
2019-05-20T13:46:12.804Z,13.20
2019-05-20T13:48:42.185Z,13.20
2019-05-20T13:51:12.062Z,13.20
2019-05-20T13:53:41.567Z,13.30
2019-05-20T13:56:10.747Z,13.20
2019-05-20T13:58:40.051Z,13.30
2019-05-20T14:01:09.207Z,13.30
2019-05-20T14:03:38.532Z,13.30
2019-05-20T14:06:08.765Z,13.40
2019-05-20T14:08:37.952Z,13.40
2019-05-20T14:11:07.381Z,13.50
2019-05-20T14:13:36.566Z,13.50
2019-05-20T14:16:05.865Z,13.50
2019-05-20T14:18:38.330Z,13.60
2019-05-20T14:21:07.620Z,13.60
2019-05-20T14:23:36.870Z,13.70
2019-05-20T14:26:06.088Z,13.70
2019-05-20T14:28:35.578Z,13.60
2019-05-20T14:31:06.069Z,13.60
2019-05-20T14:33:35.867Z,13.60
2019-05-20T14:36:05.304Z,13.60
2019-05-20T14:38:39.612Z,13.50
2019-05-20T14:41:20.849Z,13.50
2019-05-20T14:43:39.837Z,13.50
2019-05-20T14:46:09.395Z,13.50
2019-05-20T14:48:39.048Z,13.40
2019-05-20T14:51:08.339Z,13.30
2019-05-20T14:53:37.534Z,13.30
2019-05-20T14:56:06.875Z,13.20
2019-05-20T14:58:36.118Z,13.20
2019-05-20T15:01:05.348Z,13.20
2019-05-20T15:03:34.695Z,13.20
2019-05-20T15:06:06.035Z,13.10
2019-05-20T15:08:35.385Z,13.10
2019-05-20T15:11:05.100Z,13.10
2019-05-20T15:13:34.453Z,13.10
2019-05-20T15:16:03.777Z,13.10
2019-05-20T15:18:36.552Z,13.10
2019-05-20T15:21:06.028Z,13.00
2019-05-20T15:23:35.691Z,13.00
2019-05-20T15:26:04.989Z,13.00
2019-05-20T15:28:34.285Z,13.10
2019-05-20T15:31:03.566Z,13.10
2019-05-20T15:33:32.837Z,13.00
2019-05-20T15:36:02.114Z,13.00
2019-05-20T15:38:31.781Z,13.00
2019-05-20T15:41:01.185Z,13.00
2019-05-20T15:43:30.439Z,13.10
2019-05-20T15:46:00.354Z,13.10
2019-05-20T15:48:35.520Z,13.20
2019-05-20T15:51:04.709Z,13.20
2019-05-20T15:53:34.042Z,13.20
2019-05-20T15:56:03.369Z,13.20
2019-05-20T15:58:32.674Z,13.20
2019-05-20T16:01:04.522Z,13.20
2019-05-20T16:03:33.961Z,13.20
2019-05-20T16:06:05.981Z,13.30
2019-05-20T16:08:35.913Z,13.20
2019-05-20T16:11:06.938Z,13.20
2019-05-20T16:13:36.817Z,13.20
2019-05-20T16:16:13.137Z,13.20
2019-05-20T16:18:42.520Z,13.50
2019-05-20T16:21:11.731Z,14.00
2019-05-20T16:23:41.058Z,14.10
2019-05-20T16:26:10.338Z,14.20
2019-05-20T16:28:39.585Z,14.30
2019-05-20T16:31:09.164Z,14.40
2019-05-20T16:33:38.501Z,14.20
2019-05-20T16:36:07.864Z,13.90
2019-05-20T16:38:37.258Z,13.60
2019-05-20T16:41:07.043Z,13.50
2019-05-20T16:43:36.366Z,13.40
2019-05-20T16:46:07.441Z,13.30
2019-05-20T16:48:36.858Z,13.30
2019-05-20T16:51:06.063Z,13.20
2019-05-20T16:53:35.401Z,13.10
2019-05-20T16:56:05.114Z,13.00
2019-05-20T16:58:34.423Z,13.00
2019-05-20T17:01:06.413Z,13.00
2019-05-20T17:03:35.711Z,13.00
2019-05-20T17:06:04.986Z,12.90
2019-05-20T17:08:34.230Z,12.90
2019-05-20T17:11:03.654Z,12.90
2019-05-20T17:13:32.932Z,12.80
2019-05-20T17:16:02.233Z,12.70
2019-05-20T17:18:32.055Z,12.70
2019-05-20T17:21:01.343Z,12.70
2019-05-20T17:23:33.094Z,12.60
2019-05-20T17:26:02.567Z,12.60
2019-05-20T17:28:31.891Z,12.50
2019-05-20T17:31:01.066Z,12.50
2019-05-20T17:33:30.564Z,12.40
2019-05-20T17:36:00.934Z,12.40
2019-05-20T17:38:30.232Z,12.40
2019-05-20T17:40:59.792Z,12.40
2019-05-20T17:43:29.105Z,12.40
2019-05-20T17:45:58.425Z,12.40
2019-05-20T17:48:28.177Z,12.40
2019-05-20T17:50:57.808Z,12.40
2019-05-20T17:53:27.027Z,12.40
2019-05-20T17:55:56.244Z,12.40
2019-05-20T17:58:25.563Z,12.40
2019-05-20T18:00:54.860Z,12.50
2019-05-20T18:03:25.722Z,12.40
2019-05-20T18:05:55.147Z,12.40
2019-05-20T18:08:26.723Z,12.40
2019-05-20T18:10:56.204Z,12.40
2019-05-20T18:13:25.556Z,12.30
2019-05-20T18:15:54.928Z,12.30
2019-05-20T18:18:24.118Z,12.30
2019-05-20T18:20:56.405Z,12.30
2019-05-20T18:23:24.506Z,12.30
2019-05-20T18:25:54.177Z,12.30
2019-05-20T18:28:23.511Z,12.30
2019-05-20T18:30:52.826Z,12.20
2019-05-20T18:33:22.756Z,12.30
2019-05-20T18:35:52.017Z,12.30
2019-05-20T18:38:21.427Z,12.20
2019-05-20T18:40:51.161Z,12.20
2019-05-20T18:43:20.645Z,12.20
2019-05-20T18:45:49.956Z,12.20
2019-05-20T18:48:22.130Z,12.20
2019-05-20T18:50:51.497Z,12.20
2019-05-20T18:53:20.828Z,12.20
2019-05-20T18:55:50.102Z,12.20
2019-05-20T18:58:20.712Z,12.20
2019-05-20T19:00:50.016Z,12.20
2019-05-20T19:03:20.043Z,12.10
2019-05-20T19:05:49.967Z,12.10
2019-05-20T19:08:19.665Z,12.10
2019-05-20T19:10:51.678Z,12.10
2019-05-20T19:13:21.377Z,12.00
2019-05-20T19:15:50.659Z,12.00
2019-05-20T19:18:21.004Z,12.00
2019-05-20T19:20:50.378Z,12.00
2019-05-20T19:23:21.336Z,12.00
2019-05-20T19:25:50.659Z,12.00
2019-05-20T19:28:22.305Z,12.00
2019-05-20T19:30:53.739Z,11.90
2019-05-20T19:33:23.039Z,12.00
2019-05-20T19:35:52.285Z,12.00
2019-05-20T19:38:23.482Z,12.00
2019-05-20T19:40:52.852Z,12.00
2019-05-20T19:43:22.172Z,12.00
2019-05-20T19:45:51.492Z,12.00
2019-05-20T19:48:20.839Z,12.00
2019-05-20T19:50:51.419Z,12.10
2019-05-20T19:53:22.115Z,12.10
2019-05-20T19:55:54.990Z,12.00
2019-05-20T19:58:24.267Z,12.00
2019-05-20T20:00:56.686Z,12.00
2019-05-20T20:03:25.726Z,12.10
2019-05-20T20:05:55.516Z,12.00
2019-05-20T20:08:24.918Z,12.00
2019-05-20T20:10:54.595Z,12.00
2019-05-20T20:13:23.841Z,12.00
2019-05-20T20:15:55.558Z,12.00
2019-05-20T20:18:24.825Z,12.00
2019-05-20T20:20:54.144Z,11.90
2019-05-20T20:23:23.454Z,11.90
2019-05-20T20:25:52.740Z,12.00
2019-05-20T20:28:21.999Z,12.00
2019-05-20T20:30:53.081Z,11.90
2019-05-20T20:33:22.418Z,11.90
2019-05-20T20:35:51.636Z,11.90
2019-05-20T20:38:20.889Z,12.00
2019-05-20T20:40:50.067Z,11.90
2019-05-20T20:43:21.815Z,11.90
2019-05-20T20:45:50.997Z,11.90
2019-05-20T20:48:20.294Z,11.80
2019-05-20T20:50:52.537Z,11.80
2019-05-20T20:53:21.764Z,11.80
2019-05-20T20:55:51.042Z,11.80
2019-05-20T20:58:21.773Z,11.70
2019-05-20T21:00:51.200Z,11.70
2019-05-20T21:03:20.470Z,11.70
2019-05-20T21:05:49.744Z,11.70
2019-05-20T21:08:19.469Z,11.60
2019-05-20T21:10:49.010Z,11.70
2019-05-20T21:13:19.493Z,11.70
2019-05-20T21:15:48.753Z,11.70
2019-05-20T21:18:18.056Z,11.60
2019-05-20T21:20:47.306Z,11.60
2019-05-20T21:23:16.594Z,11.60
2019-05-20T21:25:45.850Z,11.60
2019-05-20T21:28:15.170Z,11.60
2019-05-20T21:30:44.649Z,11.60
2019-05-20T21:33:14.123Z,11.60
2019-05-20T21:35:45.300Z,11.50
2019-05-20T21:38:14.421Z,11.60
2019-05-20T21:40:43.616Z,11.50
2019-05-20T21:43:12.819Z,11.50
2019-05-20T21:45:42.005Z,11.40
2019-05-20T21:48:11.199Z,11.40
2019-05-20T21:50:47.414Z,11.40
2019-05-20T21:53:16.662Z,11.30
2019-05-20T21:55:45.894Z,11.30
2019-05-20T21:58:15.193Z,11.30
